createdAt,value
2022-08-09T00:00:56.471Z,0.85
2022-08-09T00:04:05.955Z,1.33
2022-08-09T00:06:53.528Z,1.00
2022-08-09T00:09:42.092Z,1.70
2022-08-09T00:12:34.713Z,1.27
2022-08-09T00:15:26.378Z,1.55
2022-08-09T00:18:35.052Z,0.98
2022-08-09T00:21:24.475Z,1.40
2022-08-09T00:24:13.117Z,1.20
2022-08-09T00:27:03.907Z,1.00
2022-08-09T00:30:24.639Z,0.93
2022-08-09T00:33:02.620Z,1.00
2022-08-09T00:35:52.453Z,0.88
2022-08-09T00:38:42.955Z,1.05
2022-08-09T00:44:13.223Z,1.25
2022-08-09T00:44:42.025Z,1.08
2022-08-09T00:47:35.816Z,0.88
2022-08-09T00:50:29.530Z,1.17
2022-08-09T00:53:24.384Z,0.80
2022-08-09T00:56:13.671Z,1.27
2022-08-09T00:59:02.735Z,0.85
2022-08-09T01:01:52.627Z,0.80
2022-08-09T01:04:51.129Z,1.00
2022-08-09T01:07:59.712Z,0.90
2022-08-09T01:10:56.689Z,1.20
2022-08-09T01:13:53.298Z,1.35
2022-08-09T01:16:49.287Z,1.05
2022-08-09T01:19:57.058Z,1.17
2022-08-09T01:24:03.222Z,1.10
2022-08-09T01:26:52.765Z,1.20
2022-08-09T01:29:54.981Z,1.27
2022-08-09T01:32:47.443Z,1.40
2022-08-09T01:35:42.347Z,1.25
2022-08-09T01:38:32.984Z,1.17
2022-08-09T01:41:25.650Z,1.10
2022-08-09T01:44:17.968Z,1.00
2022-08-09T01:47:11.744Z,1.20
2022-08-09T01:50:00.698Z,1.42
2022-08-09T01:52:55.679Z,1.30
2022-08-09T01:55:44.860Z,1.30
2022-08-09T01:58:36.149Z,1.30
2022-08-09T02:01:30.582Z,1.35
2022-08-09T02:04:36.449Z,1.35
2022-08-09T02:08:39.996Z,1.38
2022-08-09T02:10:51.013Z,1.30
2022-08-09T02:13:40.790Z,1.20
2022-08-09T02:16:53.177Z,1.33
2022-08-09T02:19:43.310Z,1.38
2022-08-09T02:22:36.564Z,1.00
2022-08-09T02:25:27.874Z,1.50
2022-08-09T02:28:18.240Z,1.17
2022-08-09T02:31:15.310Z,1.45
2022-08-09T02:34:13.864Z,1.63
2022-08-09T02:37:24.210Z,1.05
2022-08-09T02:40:26.924Z,1.25
2022-08-09T02:43:16.324Z,1.38
2022-08-09T02:46:08.626Z,1.13
2022-08-09T02:49:00.242Z,1.40
2022-08-09T02:52:00.037Z,1.38
2022-08-09T02:54:54.331Z,1.02
2022-08-09T02:57:59.960Z,1.13
2022-08-09T03:00:58.631Z,0.98
2022-08-09T03:04:17.914Z,1.52
2022-08-09T03:06:59.801Z,1.30
2022-08-09T03:10:01.970Z,1.45
2022-08-09T03:12:51.880Z,1.42
2022-08-09T03:16:06.573Z,1.00
2022-08-09T03:18:50.639Z,1.40
2022-08-09T03:21:50.847Z,1.45
2022-08-09T03:24:52.357Z,1.40
2022-08-09T03:27:45.530Z,1.17
2022-08-09T03:30:34.634Z,1.05
2022-08-09T03:33:26.269Z,1.17
2022-08-09T03:36:34.995Z,1.58
2022-08-09T03:39:28.728Z,1.52
2022-08-09T03:42:28.974Z,1.33
2022-08-09T03:46:04.683Z,0.80
2022-08-09T03:48:30.960Z,1.27
2022-08-09T03:51:56.962Z,0.80
2022-08-09T03:54:34.626Z,1.52
2022-08-09T03:57:23.566Z,1.20
2022-08-09T04:00:14.770Z,1.27
2022-08-09T04:03:06.633Z,1.38
2022-08-09T04:05:55.273Z,1.15
2022-08-09T04:08:46.743Z,1.55
2022-08-09T04:11:53.004Z,1.13
2022-08-09T04:15:00.682Z,1.50
2022-08-09T04:17:52.554Z,1.40
2022-08-09T04:20:46.093Z,1.35
2022-08-09T04:23:34.659Z,2.10
2022-08-09T04:26:23.574Z,1.70
2022-08-09T04:29:15.576Z,1.85
2022-08-09T04:32:04.446Z,1.77
2022-08-09T04:34:57.689Z,2.25
2022-08-09T04:37:46.820Z,2.45
2022-08-09T04:40:56.116Z,1.70
2022-08-09T04:43:46.520Z,2.00
2022-08-09T04:46:58.257Z,2.28
2022-08-09T04:49:55.109Z,1.70
2022-08-09T04:52:45.631Z,2.13
2022-08-09T04:55:37.874Z,2.75
2022-08-09T04:58:31.715Z,2.58
2022-08-09T05:01:22.449Z,2.33
2022-08-09T05:04:11.521Z,1.50
2022-08-09T05:07:02.844Z,1.95
2022-08-09T05:09:52.930Z,1.80
2022-08-09T05:12:41.694Z,1.75
2022-08-09T05:15:38.996Z,2.03
2022-08-09T05:18:58.127Z,1.80
2022-08-09T05:21:47.062Z,2.00
2022-08-09T05:24:36.064Z,2.17
2022-08-09T05:27:25.938Z,1.73
2022-08-09T05:30:17.550Z,2.00
2022-08-09T05:33:09.431Z,1.75
2022-08-09T05:35:59.401Z,1.35
2022-08-09T05:38:49.492Z,1.90
2022-08-09T05:41:37.977Z,1.30
2022-08-09T05:44:32.654Z,1.70
2022-08-09T05:47:24.754Z,1.65
2022-08-09T05:50:32.007Z,1.92
2022-08-09T05:53:33.183Z,1.50
2022-08-09T05:56:22.484Z,1.45
2022-08-09T05:59:15.146Z,1.42
2022-08-09T06:02:05.329Z,1.15
2022-08-09T06:04:53.822Z,1.60
2022-08-09T06:07:44.293Z,1.45
2022-08-09T06:10:53.325Z,1.70
2022-08-09T06:13:42.059Z,1.35
2022-08-09T06:16:30.554Z,1.00
2022-08-09T06:19:20.966Z,1.38
2022-08-09T06:22:15.338Z,1.67
2022-08-09T06:25:04.286Z,1.45
2022-08-09T06:27:57.214Z,1.55
2022-08-09T06:30:45.766Z,1.17
2022-08-09T06:33:40.956Z,1.20
2022-08-09T06:36:32.129Z,1.20
2022-08-09T06:39:20.639Z,1.35
2022-08-09T06:42:11.487Z,1.15
2022-08-09T06:45:09.244Z,1.30
2022-08-09T06:48:09.170Z,1.70
2022-08-09T06:50:57.717Z,1.55
2022-08-09T06:53:49.918Z,1.42
2022-08-09T06:56:38.507Z,1.17
2022-08-09T07:00:51.170Z,1.38
2022-08-09T07:02:35.732Z,1.10
2022-08-09T07:06:02.740Z,1.17
2022-08-09T07:08:36.980Z,1.17
2022-08-09T07:11:26.921Z,1.35
2022-08-09T07:14:34.394Z,0.90
2022-08-09T07:17:22.928Z,1.08
2022-08-09T07:20:12.762Z,0.60
2022-08-09T07:23:01.242Z,0.90
2022-08-09T07:25:52.241Z,1.00
2022-08-09T07:29:07.851Z,0.98
2022-08-09T07:32:01.272Z,1.20
2022-08-09T07:34:49.808Z,0.93
2022-08-09T07:37:43.332Z,1.27
2022-08-09T07:41:00.398Z,1.00
2022-08-09T07:43:55.910Z,1.40
2022-08-09T07:46:47.590Z,1.90
2022-08-09T07:49:36.241Z,1.10
2022-08-09T07:52:44.726Z,1.00
2022-08-09T07:55:41.365Z,1.30
2022-08-09T07:58:44.684Z,0.98
2022-08-09T08:01:36.030Z,1.00
2022-08-09T08:04:31.523Z,0.88
2022-08-09T08:08:42.492Z,0.95
2022-08-09T08:10:29.894Z,1.20
2022-08-09T08:13:23.030Z,0.80
2022-08-09T08:16:31.471Z,1.33
2022-08-09T08:19:20.703Z,0.82
2022-08-09T08:22:11.516Z,0.80
2022-08-09T08:25:00.415Z,1.15
2022-08-09T08:27:49.823Z,0.70
2022-08-09T08:30:39.038Z,1.00
2022-08-09T08:33:52.153Z,1.17
2022-08-09T08:36:40.157Z,0.52
2022-08-09T08:39:39.804Z,0.73
2022-08-09T08:42:33.969Z,0.82
2022-08-09T08:45:37.025Z,0.75
2022-08-09T08:48:29.128Z,0.70
2022-08-09T08:51:19.596Z,0.65
2022-08-09T08:54:11.815Z,0.65
2022-08-09T08:57:11.532Z,0.50
2022-08-09T09:00:00.335Z,0.73
2022-08-09T09:02:52.976Z,0.47
2022-08-09T09:05:59.942Z,0.75
2022-08-09T09:08:52.520Z,0.77
2022-08-09T09:11:43.109Z,0.90
2022-08-09T09:14:34.074Z,0.80
2022-08-09T09:17:22.620Z,1.05
2022-08-09T09:20:15.418Z,1.10
2022-08-09T09:23:04.390Z,0.95
2022-08-09T09:26:02.221Z,0.80
2022-08-09T09:29:03.950Z,1.05
2022-08-09T09:32:06.265Z,1.10
2022-08-09T09:35:09.008Z,0.60
2022-08-09T09:37:59.648Z,0.88
2022-08-09T09:40:49.420Z,0.75
2022-08-09T09:43:41.275Z,0.95
2022-08-09T09:46:51.853Z,0.90
2022-08-09T09:50:07.479Z,0.85
2022-08-09T09:52:53.474Z,0.60
2022-08-09T09:56:04.079Z,0.68
2022-08-09T09:58:53.760Z,0.68
2022-08-09T10:01:44.071Z,1.23
2022-08-09T10:04:32.796Z,1.30
2022-08-09T10:07:27.238Z,0.90
2022-08-09T10:10:31.590Z,0.75
2022-08-09T10:13:24.757Z,0.77
2022-08-09T10:16:57.980Z,0.68
2022-08-09T10:19:39.830Z,0.50
2022-08-09T10:22:34.640Z,1.00
2022-08-09T10:25:24.156Z,0.80
2022-08-09T10:28:23.624Z,0.80
2022-08-09T10:34:33.942Z,0.60
2022-08-09T10:37:24.626Z,0.88
2022-08-09T10:40:34.765Z,0.57
2022-08-09T10:43:25.118Z,0.70
2022-08-09T10:47:00.724Z,1.10
2022-08-09T10:49:58.728Z,0.77
2022-08-09T10:53:13.653Z,0.57
2022-08-09T10:56:22.975Z,0.70
2022-08-09T10:59:31.806Z,0.75
2022-08-09T11:03:13.389Z,1.10
2022-08-09T11:06:22.845Z,0.95
2022-08-09T11:09:16.004Z,0.85
2022-08-09T11:12:13.892Z,0.93
2022-08-09T11:15:34.057Z,0.80
2022-08-09T11:18:48.355Z,0.80
2022-08-09T11:21:57.476Z,0.68
2022-08-09T11:25:08.271Z,1.00
2022-08-09T11:28:04.367Z,0.70
2022-08-09T11:30:54.633Z,0.73
2022-08-09T11:33:51.203Z,0.65
2022-08-09T11:36:44.245Z,1.10
2022-08-09T11:39:33.463Z,0.90
2022-08-09T11:42:39.428Z,0.85
2022-08-09T11:45:41.934Z,0.90
2022-08-09T11:48:33.600Z,1.00
2022-08-09T11:53:02.584Z,1.10
2022-08-09T11:54:34.987Z,0.88
2022-08-09T11:57:47.802Z,0.90
2022-08-09T12:00:52.933Z,0.90
2022-08-09T12:03:55.016Z,0.95
2022-08-09T12:06:55.789Z,0.82
2022-08-09T12:09:50.482Z,1.27
2022-08-09T12:12:47.052Z,0.93
2022-08-09T12:15:49.084Z,0.68
2022-08-09T12:18:43.787Z,0.70
2022-08-09T12:21:48.692Z,0.65
2022-08-09T12:24:39.759Z,0.82
2022-08-09T12:29:10.810Z,1.10
2022-08-09T12:30:40.256Z,0.80
2022-08-09T12:33:51.432Z,1.10
2022-08-09T12:36:51.269Z,1.20
2022-08-09T12:40:01.284Z,1.20
2022-08-09T12:42:51.020Z,1.30
2022-08-09T12:45:39.660Z,0.85
2022-08-09T12:48:33.843Z,0.98
2022-08-09T12:51:52.498Z,0.82
2022-08-09T12:56:11.157Z,1.25
2022-08-09T12:58:00.073Z,1.10
2022-08-09T13:00:48.924Z,1.40
2022-08-09T13:03:52.769Z,1.15
2022-08-09T13:06:44.553Z,0.98
2022-08-09T13:09:38.188Z,1.20
2022-08-09T13:12:28.351Z,0.70
2022-08-09T13:15:16.909Z,0.93
2022-08-09T13:18:09.487Z,0.73
2022-08-09T13:22:33.658Z,1.10
2022-08-09T13:24:42.045Z,1.30
2022-08-09T13:27:29.174Z,1.45
2022-08-09T13:30:51.226Z,1.30
2022-08-09T13:33:53.292Z,1.20
2022-08-09T13:36:42.653Z,1.50
2022-08-09T13:41:51.582Z,1.17
2022-08-09T13:42:40.699Z,1.20
2022-08-09T13:45:32.335Z,1.00
2022-08-09T13:48:39.096Z,1.95
2022-08-09T13:51:30.923Z,1.00
2022-08-09T13:54:20.480Z,1.25
2022-08-09T13:57:35.788Z,0.90
2022-08-09T14:00:22.946Z,1.10
2022-08-09T14:04:03.924Z,1.10
2022-08-09T14:06:29.541Z,0.82
2022-08-09T14:09:20.295Z,1.23
2022-08-09T14:12:15.881Z,1.00
2022-08-09T14:15:19.585Z,1.33
2022-08-09T14:18:19.626Z,0.85
2022-08-09T14:21:17.194Z,0.90
2022-08-09T14:24:18.715Z,1.00
2022-08-09T14:27:20.481Z,1.20
2022-08-09T14:30:36.663Z,1.05
2022-08-09T14:33:21.075Z,1.02
2022-08-09T14:36:20.653Z,0.95
2022-08-09T14:39:09.898Z,1.08
2022-08-09T14:41:58.517Z,1.10
2022-08-09T14:45:00.371Z,0.70
2022-08-09T14:47:49.613Z,0.88
2022-08-09T14:50:46.096Z,0.93
2022-08-09T14:53:38.808Z,1.10
2022-08-09T14:56:28.368Z,1.17
2022-08-09T14:59:16.895Z,1.33
2022-08-09T15:02:05.432Z,0.70
2022-08-09T15:04:57.384Z,1.20
2022-08-09T15:07:56.190Z,0.98
2022-08-09T15:11:00.482Z,0.73
2022-08-09T15:13:59.774Z,1.00
2022-08-09T15:16:53.225Z,1.23
2022-08-09T15:19:59.145Z,1.33
2022-08-09T15:22:48.613Z,0.80
2022-08-09T15:25:49.744Z,0.90
2022-08-09T15:28:42.164Z,0.90
2022-08-09T15:31:42.090Z,1.50
2022-08-09T15:34:35.380Z,1.48
2022-08-09T15:37:37.794Z,1.30
2022-08-09T15:40:45.213Z,1.60
2022-08-09T15:43:37.156Z,1.23
2022-08-09T15:46:33.844Z,1.60
2022-08-09T15:49:23.993Z,1.73
2022-08-09T15:52:12.793Z,1.25
2022-08-09T15:55:01.346Z,1.05
2022-08-09T15:57:51.495Z,1.20
2022-08-09T16:00:41.611Z,1.52
2022-08-09T16:03:38.940Z,1.65
2022-08-09T16:06:35.651Z,1.20
2022-08-09T16:09:32.421Z,1.52
2022-08-09T16:12:34.907Z,1.05
2022-08-09T16:16:10.910Z,1.80
2022-08-09T16:18:34.994Z,1.20
2022-08-09T16:21:25.461Z,1.00
2022-08-09T16:24:29.631Z,1.10
2022-08-09T16:27:21.824Z,0.93
2022-08-09T16:30:15.341Z,1.80
2022-08-09T16:33:15.731Z,1.27
2022-08-09T16:36:13.177Z,0.88
2022-08-09T16:39:05.381Z,1.00
2022-08-09T16:42:03.661Z,1.17
2022-08-09T16:44:53.411Z,1.42
2022-08-09T16:48:38.089Z,1.67
2022-08-09T16:50:59.420Z,2.00
2022-08-09T16:54:25.347Z,1.70
2022-08-09T16:57:05.780Z,1.42
2022-08-09T16:59:59.186Z,2.38
2022-08-09T17:02:47.770Z,2.25
2022-08-09T17:06:07.078Z,2.53
2022-08-09T17:08:59.866Z,1.85
2022-08-09T17:11:54.950Z,2.55
2022-08-09T17:14:47.886Z,2.55
2022-08-09T17:17:51.017Z,2.28
2022-08-09T17:20:49.223Z,2.70
2022-08-09T17:24:20.775Z,2.90
2022-08-09T17:26:52.009Z,2.47
2022-08-09T17:29:45.611Z,2.78
2022-08-09T17:32:35.130Z,2.22
2022-08-09T17:35:26.937Z,2.28
2022-08-09T17:38:24.575Z,2.60
2022-08-09T17:41:37.654Z,2.42
2022-08-09T17:44:47.146Z,2.42
2022-08-09T17:47:49.566Z,2.30
2022-08-09T17:50:48.698Z,2.10
2022-08-09T17:53:47.963Z,2.03
2022-08-09T17:56:41.036Z,1.90
2022-08-09T17:59:38.332Z,1.85
2022-08-09T18:02:30.356Z,1.95
2022-08-09T18:05:23.355Z,2.13
2022-08-09T18:08:27.995Z,1.55
2022-08-09T18:11:16.749Z,1.58
2022-08-09T18:14:14.687Z,1.45
2022-08-09T18:17:03.520Z,1.98
2022-08-09T18:20:57.442Z,1.63
2022-08-09T18:23:04.941Z,1.50
2022-08-09T18:25:57.636Z,1.70
2022-08-09T18:30:41.057Z,1.20
2022-08-09T18:32:03.179Z,1.40
2022-08-09T18:34:51.808Z,1.45
2022-08-09T18:37:47.362Z,2.22
2022-08-09T18:40:39.162Z,2.90
2022-08-09T18:43:27.791Z,3.38
2022-08-09T18:46:49.398Z,3.15
2022-08-09T18:49:43.723Z,2.50
2022-08-09T18:52:35.660Z,2.55
2022-08-09T18:55:29.142Z,2.20
2022-08-09T18:58:34.157Z,2.28
2022-08-09T19:01:23.765Z,1.98
2022-08-09T19:04:13.136Z,1.85
2022-08-09T19:07:01.606Z,2.00
2022-08-09T19:10:14.928Z,1.67
2022-08-09T19:13:21.002Z,1.77
2022-08-09T19:16:18.327Z,1.30
2022-08-09T19:19:25.529Z,2.60
2022-08-09T19:22:16.851Z,1.73
2022-08-09T19:25:41.812Z,1.70
2022-08-09T19:28:16.442Z,1.90
2022-08-09T19:31:07.768Z,1.98
2022-08-09T19:33:57.974Z,1.55
2022-08-09T19:36:46.593Z,1.90
2022-08-09T19:40:02.688Z,2.17
2022-08-09T19:42:44.071Z,2.15
2022-08-09T19:45:40.192Z,1.90
2022-08-09T19:49:01.773Z,1.90
2022-08-09T19:51:40.354Z,2.05
2022-08-09T19:54:37.171Z,2.05
2022-08-09T19:57:26.054Z,2.25
2022-08-09T20:00:15.971Z,1.55
2022-08-09T20:04:08.356Z,2.65
2022-08-09T20:06:23.358Z,1.80
2022-08-09T20:09:44.991Z,2.08
2022-08-09T20:12:36.409Z,2.05
2022-08-09T20:16:37.681Z,1.75
2022-08-09T20:18:35.613Z,1.67
2022-08-09T20:21:29.635Z,2.30
2022-08-09T20:24:34.524Z,2.25
2022-08-09T20:27:23.327Z,2.05
2022-08-09T20:30:13.285Z,2.38
2022-08-09T20:33:06.694Z,2.38
2022-08-09T20:35:55.748Z,2.20
2022-08-09T20:39:17.220Z,2.00
2022-08-09T20:41:54.498Z,1.88
2022-08-09T20:45:00.329Z,1.90
2022-08-09T20:47:53.747Z,1.67
2022-08-09T20:50:47.036Z,2.00
2022-08-09T20:53:38.953Z,2.10
2022-08-09T20:56:27.766Z,2.00
2022-08-09T20:59:25.055Z,2.50
2022-08-09T21:02:30.105Z,2.20
2022-08-09T21:05:53.626Z,1.67
2022-08-09T21:08:36.273Z,1.90
2022-08-09T21:14:40.177Z,2.28
2022-08-09T21:18:23.416Z,1.90
2022-08-09T21:20:37.633Z,1.88
2022-08-09T21:23:47.962Z,2.00
2022-08-09T21:26:35.925Z,2.28
2022-08-09T21:29:24.393Z,2.28
2022-08-09T21:32:18.559Z,2.25
2022-08-09T21:35:08.314Z,1.92
2022-08-09T21:38:00.464Z,1.80
2022-08-09T21:40:50.781Z,1.88
2022-08-09T21:43:57.983Z,2.20
2022-08-09T21:46:46.830Z,1.95
2022-08-09T21:49:39.656Z,1.95
2022-08-09T21:52:29.184Z,2.05
2022-08-09T21:55:18.495Z,1.85
2022-08-09T21:58:07.370Z,2.13
2022-08-09T22:01:02.082Z,1.95
2022-08-09T22:03:58.982Z,2.10
2022-08-09T22:06:59.343Z,1.63
2022-08-09T22:09:50.622Z,1.63
2022-08-09T22:12:40.680Z,2.38
2022-08-09T22:15:38.393Z,2.22
2022-08-09T22:18:30.848Z,2.03
2022-08-09T22:21:24.170Z,1.75
2022-08-09T22:24:16.584Z,1.70
2022-08-09T22:27:06.321Z,1.95
2022-08-09T22:29:55.187Z,1.80
2022-08-09T22:32:45.962Z,2.10
2022-08-09T22:36:01.429Z,2.35
2022-08-09T22:38:43.834Z,2.85
2022-08-09T22:41:33.900Z,2.85
2022-08-09T22:44:23.006Z,2.58
2022-08-09T22:48:13.475Z,2.42
2022-08-09T22:50:27.066Z,1.85
2022-08-09T22:53:15.817Z,1.98
2022-08-09T22:56:31.132Z,2.10
2022-08-09T22:59:57.879Z,2.08
2022-08-09T23:02:22.865Z,2.22
2022-08-09T23:05:13.456Z,1.98
2022-08-09T23:08:29.515Z,2.20
2022-08-09T23:11:23.197Z,1.90
2022-08-09T23:14:17.512Z,1.90
2022-08-09T23:17:20.123Z,2.35
2022-08-09T23:20:09.866Z,1.90
2022-08-09T23:22:58.377Z,1.73
2022-08-09T23:25:46.952Z,1.80
2022-08-09T23:28:35.443Z,1.98
2022-08-09T23:31:23.924Z,1.83
2022-08-09T23:34:13.788Z,1.60
2022-08-09T23:37:03.110Z,2.03
2022-08-09T23:39:51.609Z,2.47
2022-08-09T23:42:40.702Z,2.05
2022-08-09T23:45:37.107Z,1.67
2022-08-09T23:48:28.105Z,1.65
2022-08-09T23:51:18.501Z,1.75
2022-08-09T23:54:07.359Z,1.95
2022-08-09T23:56:58.267Z,1.67
